createdAt,value
2023-05-24T00:01:25.719Z,8.50
2023-05-24T00:03:59.553Z,8.90
2023-05-24T00:06:28.500Z,8.00
2023-05-24T00:08:57.539Z,7.60
2023-05-24T00:11:27.592Z,8.90
2023-05-24T00:13:58.929Z,7.70
2023-05-24T00:16:28.137Z,11.40
2023-05-24T00:19:01.645Z,9.00
2023-05-24T00:21:31.640Z,9.50
2023-05-24T00:24:00.450Z,9.30
2023-05-24T00:26:29.079Z,5.90
2023-05-24T00:28:58.232Z,9.40
2023-05-24T00:31:34.393Z,9.90
2023-05-24T00:34:05.389Z,8.20
2023-05-24T00:36:39.041Z,9.20
2023-05-24T00:39:09.211Z,10.50
2023-05-24T00:41:37.803Z,6.70
2023-05-24T00:44:06.490Z,8.30
2023-05-24T00:46:36.421Z,9.20
2023-05-24T00:49:05.645Z,7.80
2023-05-24T00:51:41.248Z,7.60
2023-05-24T00:54:15.567Z,8.40
2023-05-24T00:56:45.125Z,10.70
2023-05-24T00:59:14.748Z,8.80
2023-05-24T01:01:50.809Z,8.90
2023-05-24T01:04:22.537Z,8.60
2023-05-24T01:07:05.157Z,11.10
2023-05-24T01:09:50.949Z,8.90
2023-05-24T01:12:46.673Z,7.10
2023-05-24T01:15:25.481Z,8.70
2023-05-24T01:18:11.406Z,9.70
2023-05-24T01:20:41.682Z,12.70
2023-05-24T01:23:39.549Z,8.70
2023-05-24T01:26:20.828Z,9.50
2023-05-24T01:28:50.864Z,8.40
2023-05-24T01:31:24.954Z,8.60
2023-05-24T01:33:53.974Z,13.60
2023-05-24T01:36:26.378Z,13.20
2023-05-24T01:38:55.615Z,8.80
2023-05-24T01:41:41.249Z,6.60
2023-05-24T01:44:19.237Z,8.60
2023-05-24T01:49:26.115Z,6.10
2023-05-24T01:52:00.054Z,9.70
2023-05-24T01:54:33.142Z,8.90
2023-05-24T01:57:07.620Z,8.30
2023-05-24T01:59:39.750Z,9.90
2023-05-24T02:02:09.142Z,8.50
2023-05-24T02:04:39.120Z,10.00
2023-05-24T02:07:11.203Z,12.90
2023-05-24T02:09:39.893Z,7.60
2023-05-24T02:12:11.478Z,9.60
2023-05-24T02:14:44.549Z,9.00
2023-05-24T02:17:18.864Z,8.50
2023-05-24T02:19:47.654Z,8.60
2023-05-24T02:22:16.606Z,8.80
2023-05-24T02:24:49.409Z,8.10
2023-05-24T02:27:20.856Z,6.20
2023-05-24T02:29:49.659Z,11.10
2023-05-24T02:32:19.702Z,10.80
2023-05-24T02:34:48.570Z,7.20
2023-05-24T02:37:18.352Z,7.90
2023-05-24T02:39:47.181Z,8.00
2023-05-24T02:42:19.825Z,8.20
2023-05-24T02:44:51.786Z,10.40
2023-05-24T02:47:21.115Z,7.90
2023-05-24T02:49:51.215Z,8.50
2023-05-24T02:52:22.784Z,10.10
2023-05-24T02:54:54.458Z,9.60
2023-05-24T02:57:23.752Z,8.60
2023-05-24T02:59:52.806Z,9.10
2023-05-24T03:02:21.847Z,8.60
2023-05-24T03:04:53.398Z,8.50
2023-05-24T03:07:22.460Z,13.40
2023-05-24T03:09:51.361Z,10.00
2023-05-24T03:12:20.785Z,6.70
2023-05-24T03:14:50.059Z,8.90
2023-05-24T03:17:21.503Z,8.70
2023-05-24T03:19:52.088Z,9.50
2023-05-24T03:22:20.880Z,7.70
2023-05-24T03:24:49.640Z,9.00
2023-05-24T03:27:21.557Z,7.20
2023-05-24T03:29:50.736Z,10.00
2023-05-24T03:32:21.006Z,9.40
2023-05-24T03:34:49.518Z,8.10
2023-05-24T03:37:19.068Z,6.50
2023-05-24T03:39:48.343Z,6.30
2023-05-24T03:42:58.963Z,7.10
2023-05-24T03:46:01.300Z,8.30
2023-05-24T03:48:30.510Z,7.90
2023-05-24T03:51:00.914Z,8.90
2023-05-24T03:53:29.678Z,15.70
2023-05-24T03:55:58.338Z,6.90
2023-05-24T03:58:27.032Z,9.60
2023-05-24T04:01:00.638Z,7.30
2023-05-24T04:03:33.503Z,9.10
2023-05-24T04:06:02.105Z,7.30
2023-05-24T04:08:31.426Z,6.90
2023-05-24T04:10:59.922Z,6.50
2023-05-24T04:13:28.991Z,8.30
2023-05-24T04:16:00.879Z,6.30
2023-05-24T04:18:30.073Z,7.40
2023-05-24T04:20:58.952Z,9.80
2023-05-24T04:23:27.645Z,8.60
2023-05-24T04:25:56.477Z,10.00
2023-05-24T04:28:25.653Z,8.00
2023-05-24T04:31:00.190Z,6.80
2023-05-24T04:33:28.868Z,7.80
2023-05-24T04:36:00.593Z,10.20
2023-05-24T04:38:32.274Z,6.10
2023-05-24T04:41:00.834Z,7.40
2023-05-24T04:43:30.949Z,10.30
2023-05-24T04:45:59.659Z,8.30
2023-05-24T04:48:29.365Z,7.10
2023-05-24T04:50:58.486Z,7.50
2023-05-24T04:53:27.283Z,8.10
2023-05-24T04:55:56.049Z,5.40
2023-05-24T04:58:25.187Z,8.50
2023-05-24T05:01:01.557Z,8.60
2023-05-24T05:03:30.271Z,8.20
2023-05-24T05:05:59.219Z,6.60
2023-05-24T05:08:27.917Z,7.60
2023-05-24T05:10:57.145Z,10.80
2023-05-24T05:13:25.959Z,8.00
2023-05-24T05:15:59.874Z,7.30
2023-05-24T05:18:28.428Z,9.10
2023-05-24T05:20:57.931Z,7.50
2023-05-24T05:23:27.031Z,8.00
2023-05-24T05:25:58.757Z,12.10
2023-05-24T05:28:27.766Z,9.50
2023-05-24T05:31:00.645Z,6.80
2023-05-24T05:33:31.959Z,9.10
2023-05-24T05:36:00.693Z,6.10
2023-05-24T05:38:30.638Z,7.30
2023-05-24T05:40:59.208Z,5.90
2023-05-24T05:43:28.712Z,7.90
2023-05-24T05:46:01.911Z,5.80
2023-05-24T05:48:30.742Z,7.50
2023-05-24T05:50:59.365Z,7.00
2023-05-24T05:53:28.218Z,7.30
2023-05-24T05:55:58.250Z,6.00
2023-05-24T05:58:27.019Z,6.30
2023-05-24T06:01:03.308Z,7.30
2023-05-24T06:03:33.413Z,6.10
2023-05-24T06:06:02.434Z,8.30
2023-05-24T06:08:34.418Z,12.10
2023-05-24T06:11:03.159Z,18.20
2023-05-24T06:13:32.520Z,22.20
2023-05-24T06:16:01.363Z,15.50
2023-05-24T06:18:32.113Z,11.00
2023-05-24T06:21:00.714Z,7.20
2023-05-24T06:23:29.406Z,8.50
2023-05-24T06:25:58.414Z,7.60
2023-05-24T06:28:27.668Z,8.80
2023-05-24T06:31:00.528Z,7.50
2023-05-24T06:33:31.124Z,8.10
2023-05-24T06:35:59.674Z,10.20
2023-05-24T06:38:28.759Z,10.00
2023-05-24T06:40:57.748Z,8.50
2023-05-24T06:43:27.563Z,9.90
2023-05-24T06:46:03.337Z,14.40
2023-05-24T06:48:32.071Z,7.30
2023-05-24T06:51:01.054Z,11.10
2023-05-24T06:53:30.179Z,9.80
2023-05-24T06:55:59.253Z,9.10
2023-05-24T06:58:28.126Z,9.30
2023-05-24T07:01:00.087Z,9.40
2023-05-24T07:03:30.393Z,7.20
2023-05-24T07:05:59.226Z,12.20
2023-05-24T07:08:30.180Z,9.40
2023-05-24T07:10:58.992Z,10.30
2023-05-24T07:13:27.859Z,9.40
2023-05-24T07:16:04.466Z,7.70
2023-05-24T07:18:33.117Z,7.80
2023-05-24T07:21:02.137Z,9.70
2023-05-24T07:23:31.882Z,9.80
2023-05-24T07:26:00.791Z,11.40
2023-05-24T07:28:29.815Z,12.30
2023-05-24T07:31:02.130Z,11.60
2023-05-24T07:33:33.427Z,7.90
2023-05-24T07:36:02.975Z,8.30
2023-05-24T07:38:31.754Z,8.90
2023-05-24T07:41:02.811Z,10.40
2023-05-24T07:43:31.787Z,6.20
2023-05-24T07:46:03.196Z,9.20
2023-05-24T07:48:32.152Z,9.80
2023-05-24T07:51:00.855Z,7.10
2023-05-24T07:53:29.859Z,9.50
2023-05-24T07:55:58.441Z,10.10
2023-05-24T07:58:27.297Z,8.20
2023-05-24T08:01:02.471Z,8.90
2023-05-24T08:03:31.915Z,10.10
2023-05-24T08:06:01.453Z,10.50
2023-05-24T08:08:30.120Z,11.20
2023-05-24T08:10:58.817Z,8.40
2023-05-24T08:13:27.849Z,12.50
2023-05-24T08:16:02.381Z,7.90
2023-05-24T08:18:31.080Z,12.30
2023-05-24T08:20:59.639Z,8.60
2023-05-24T08:23:29.412Z,10.60
2023-05-24T08:25:58.360Z,10.30
2023-05-24T08:28:27.792Z,12.80
2023-05-24T08:31:02.021Z,7.90
2023-05-24T08:33:30.884Z,7.70
2023-05-24T08:35:59.634Z,7.80
2023-05-24T08:38:29.488Z,13.00
2023-05-24T08:40:58.174Z,8.20
2023-05-24T08:43:30.106Z,10.20
2023-05-24T08:46:04.094Z,8.80
2023-05-24T08:48:41.938Z,7.00
2023-05-24T08:53:41.572Z,9.60
2023-05-24T08:56:10.734Z,6.90
2023-05-24T08:58:39.558Z,14.90
2023-05-24T09:01:08.899Z,8.20
2023-05-24T09:03:40.321Z,10.90
2023-05-24T09:06:11.663Z,7.60
2023-05-24T09:08:43.862Z,8.60
2023-05-24T09:11:16.374Z,8.10
2023-05-24T09:13:47.902Z,8.60
2023-05-24T09:16:17.007Z,16.50
2023-05-24T09:18:46.058Z,12.30
2023-05-24T09:21:14.749Z,11.20
2023-05-24T09:23:44.685Z,9.60
2023-05-24T09:26:13.973Z,12.30
2023-05-24T09:28:43.705Z,10.50
2023-05-24T09:31:13.264Z,12.40
2023-05-24T09:33:42.271Z,13.30
2023-05-24T09:36:12.156Z,11.10
2023-05-24T09:38:41.712Z,12.30
2023-05-24T09:41:10.803Z,12.00
2023-05-24T09:43:49.307Z,10.90
2023-05-24T09:46:22.580Z,10.40
2023-05-24T09:48:58.745Z,14.40
2023-05-24T09:51:27.451Z,13.30
2023-05-24T09:54:00.725Z,11.60
2023-05-24T09:56:30.466Z,14.40
2023-05-24T09:59:05.130Z,8.60
2023-05-24T10:01:35.369Z,12.10
2023-05-24T10:04:09.293Z,8.80
2023-05-24T10:06:39.556Z,11.30
2023-05-24T10:09:11.017Z,10.30
2023-05-24T10:11:41.231Z,16.20
2023-05-24T10:14:10.973Z,14.20
2023-05-24T10:16:40.246Z,9.40
2023-05-24T10:19:09.554Z,9.20
2023-05-24T10:21:41.514Z,10.00
2023-05-24T10:24:12.598Z,11.10
2023-05-24T10:26:42.377Z,7.10
2023-05-24T10:29:24.967Z,10.80
2023-05-24T10:31:54.843Z,9.70
2023-05-24T10:34:25.142Z,10.00
2023-05-24T10:36:54.143Z,12.20
2023-05-24T10:39:25.104Z,10.00
2023-05-24T10:41:56.870Z,10.40
2023-05-24T10:44:30.175Z,13.30
2023-05-24T10:47:12.456Z,10.50
2023-05-24T10:49:50.746Z,11.50
2023-05-24T10:52:20.989Z,10.70
2023-05-24T10:55:08.977Z,8.80
2023-05-24T11:03:04.259Z,10.20
2023-05-24T11:05:36.341Z,9.60
2023-05-24T11:08:08.897Z,7.60
2023-05-24T11:10:38.273Z,10.90
2023-05-24T11:13:08.993Z,7.90
2023-05-24T11:15:37.940Z,9.90
2023-05-24T11:18:16.800Z,10.10
2023-05-24T11:20:46.374Z,8.80
2023-05-24T11:23:17.317Z,7.10
2023-05-24T11:25:47.606Z,13.40
2023-05-24T11:28:16.986Z,8.40
2023-05-24T11:30:47.381Z,10.00
2023-05-24T11:33:18.107Z,10.10
2023-05-24T11:35:49.969Z,7.40
2023-05-24T11:38:22.197Z,8.80
2023-05-24T11:40:53.148Z,6.30
2023-05-24T11:43:23.182Z,8.70
2023-05-24T11:45:52.961Z,14.90
2023-05-24T11:48:24.830Z,8.30
2023-05-24T11:50:55.657Z,9.90
2023-05-24T11:53:24.803Z,6.00
2023-05-24T11:55:57.234Z,8.90
2023-05-24T11:58:34.517Z,9.30
2023-05-24T12:01:03.555Z,7.70
2023-05-24T12:03:33.316Z,9.30
2023-05-24T12:06:02.339Z,7.30
2023-05-24T12:08:31.703Z,8.80
2023-05-24T12:11:02.308Z,9.30
2023-05-24T12:13:30.945Z,7.20
2023-05-24T12:16:02.664Z,8.20
2023-05-24T12:18:31.635Z,7.20
2023-05-24T12:21:00.290Z,9.70
2023-05-24T12:23:31.531Z,10.80
2023-05-24T12:26:00.585Z,7.30
2023-05-24T12:28:35.612Z,8.40
2023-05-24T12:31:06.685Z,7.20
2023-05-24T12:33:35.635Z,6.60
2023-05-24T12:36:04.932Z,8.30
2023-05-24T12:38:33.415Z,7.00
2023-05-24T12:43:33.673Z,6.90
2023-05-24T12:46:02.820Z,7.60
2023-05-24T12:48:31.431Z,10.70
2023-05-24T12:51:00.169Z,15.50
2023-05-24T12:53:29.083Z,9.80
2023-05-24T12:55:59.822Z,12.30
2023-05-24T12:58:28.615Z,8.80
2023-05-24T13:01:00.357Z,13.00
2023-05-24T13:03:28.967Z,10.70
2023-05-24T13:05:59.362Z,11.30
2023-05-24T13:08:29.000Z,12.10
2023-05-24T13:10:57.573Z,13.00
2023-05-24T13:13:28.025Z,11.20
2023-05-24T13:16:05.092Z,11.80
2023-05-24T13:21:04.862Z,10.40
2023-05-24T13:23:35.693Z,9.60
2023-05-24T13:26:06.462Z,15.10
2023-05-24T13:28:35.907Z,12.30
2023-05-24T13:31:05.759Z,11.20
2023-05-24T13:33:34.712Z,13.90
2023-05-24T13:36:03.312Z,13.60
2023-05-24T13:38:31.809Z,11.10
2023-05-24T13:41:00.720Z,19.00
2023-05-24T13:43:29.447Z,17.10
2023-05-24T13:45:59.861Z,13.00
2023-05-24T13:48:28.752Z,13.80
2023-05-24T13:50:57.560Z,14.60
2023-05-24T13:53:27.642Z,14.00
2023-05-24T13:55:57.186Z,15.00
2023-05-24T13:58:26.290Z,14.70
2023-05-24T14:01:03.096Z,19.10
2023-05-24T14:03:31.718Z,14.30
2023-05-24T14:06:01.080Z,18.50
2023-05-24T14:08:29.722Z,16.60
2023-05-24T14:10:58.404Z,11.60
2023-05-24T14:14:16.665Z,14.20
2023-05-24T14:16:16.125Z,10.90
2023-05-24T14:18:45.205Z,11.10
2023-05-24T14:21:13.858Z,15.60
2023-05-24T14:23:42.447Z,13.70
2023-05-24T14:26:11.153Z,12.10
2023-05-24T14:28:39.812Z,11.20
2023-05-24T14:31:08.411Z,15.70
2023-05-24T14:33:37.956Z,11.20
2023-05-24T14:36:08.125Z,11.00
2023-05-24T14:38:36.655Z,13.10
2023-05-24T14:41:06.121Z,10.00
2023-05-24T14:43:36.049Z,11.30
2023-05-24T14:46:05.753Z,14.40
2023-05-24T14:48:34.824Z,19.20
2023-05-24T14:51:03.532Z,16.50
2023-05-24T14:53:32.242Z,19.50
2023-05-24T14:56:03.281Z,18.10
2023-05-24T14:58:31.870Z,19.90
2023-05-24T15:01:02.284Z,15.70
2023-05-24T15:03:31.206Z,15.90
2023-05-24T15:06:01.293Z,19.60
2023-05-24T15:08:30.234Z,20.60
2023-05-24T15:11:00.968Z,26.00
2023-05-24T15:13:30.622Z,21.60
2023-05-24T15:16:01.156Z,27.20
2023-05-24T15:18:31.535Z,22.90
2023-05-24T15:21:04.569Z,23.00
2023-05-24T15:23:33.317Z,22.70
2023-05-24T15:26:02.146Z,20.40
2023-05-24T15:28:30.685Z,19.00
2023-05-24T15:31:03.197Z,13.30
2023-05-24T15:33:32.504Z,15.80
2023-05-24T15:36:01.266Z,16.70
2023-05-24T15:38:29.797Z,15.30
2023-05-24T15:40:59.392Z,20.60
2023-05-24T15:43:29.444Z,17.80
2023-05-24T15:46:01.376Z,19.20
2023-05-24T15:48:30.353Z,17.10
2023-05-24T15:51:53.816Z,16.50
2023-05-24T15:53:48.941Z,17.50
2023-05-24T15:56:17.614Z,17.00
2023-05-24T15:58:46.212Z,18.60
2023-05-24T16:01:16.316Z,16.30
2023-05-24T16:03:45.290Z,17.60
2023-05-24T16:06:14.107Z,17.50
2023-05-24T16:08:43.375Z,19.90
2023-05-24T16:11:12.866Z,16.90
2023-05-24T16:13:41.506Z,16.40
2023-05-24T16:16:10.691Z,14.40
2023-05-24T16:18:39.894Z,15.60
2023-05-24T16:21:11.292Z,16.50
2023-05-24T16:23:40.754Z,18.20
2023-05-24T16:26:10.159Z,13.30
2023-05-24T16:28:38.937Z,15.10
2023-05-24T16:31:07.821Z,12.10
2023-05-24T16:33:36.989Z,15.20
2023-05-24T16:36:06.092Z,14.90
2023-05-24T16:38:35.056Z,15.40
2023-05-24T16:41:05.518Z,15.00
2023-05-24T16:43:34.398Z,16.20
2023-05-24T16:46:03.357Z,20.30
2023-05-24T16:48:32.071Z,14.80
2023-05-24T16:51:01.716Z,18.40
2023-05-24T16:53:33.055Z,12.80
2023-05-24T16:56:03.470Z,18.30
2023-05-24T16:58:32.108Z,14.30
2023-05-24T17:01:01.278Z,13.40
2023-05-24T17:03:32.328Z,12.50
2023-05-24T17:06:03.911Z,13.60
2023-05-24T17:08:34.614Z,13.50
2023-05-24T17:11:03.753Z,15.70
2023-05-24T17:13:32.691Z,13.70
2023-05-24T17:16:04.205Z,16.70
2023-05-24T17:18:33.048Z,16.80
2023-05-24T17:21:05.482Z,15.70
2023-05-24T17:23:36.851Z,13.60
2023-05-24T17:26:08.346Z,14.00
2023-05-24T17:28:37.128Z,17.80
2023-05-24T17:31:08.465Z,13.80
2023-05-24T17:33:37.252Z,15.00
2023-05-24T17:36:06.259Z,17.50
2023-05-24T17:38:37.145Z,9.70
2023-05-24T17:41:08.709Z,15.70
2023-05-24T17:43:39.437Z,12.50
2023-05-24T17:46:09.341Z,12.70
2023-05-24T17:48:39.975Z,12.60
2023-05-24T17:51:10.034Z,13.80
2023-05-24T17:53:43.041Z,15.00
2023-05-24T17:56:14.060Z,11.40
2023-05-24T17:58:45.518Z,11.40
2023-05-24T18:01:16.993Z,14.70
2023-05-24T18:03:45.877Z,18.60
2023-05-24T18:06:14.963Z,12.90
2023-05-24T18:08:44.727Z,15.10
2023-05-24T18:11:15.114Z,16.10
2023-05-24T18:13:46.419Z,12.50
2023-05-24T18:16:16.381Z,14.40
2023-05-24T18:18:46.145Z,13.90
2023-05-24T18:21:15.881Z,15.00
2023-05-24T18:23:46.025Z,18.10
2023-05-24T18:26:15.693Z,14.10
2023-05-24T18:28:45.592Z,12.90
2023-05-24T18:31:20.007Z,12.40
2023-05-24T18:33:49.907Z,13.40
2023-05-24T18:36:18.652Z,14.20
2023-05-24T18:38:47.332Z,14.70
2023-05-24T18:41:16.836Z,17.30
2023-05-24T18:43:46.625Z,14.40
2023-05-24T18:46:16.712Z,14.80
2023-05-24T18:48:45.860Z,13.40
2023-05-24T18:51:16.369Z,20.20
2023-05-24T18:53:45.058Z,16.00
2023-05-24T18:56:14.392Z,14.00
2023-05-24T18:58:45.774Z,16.10
2023-05-24T19:01:18.734Z,18.60
2023-05-24T19:03:48.527Z,14.50
2023-05-24T19:06:17.594Z,15.30
2023-05-24T19:08:46.419Z,15.90
2023-05-24T19:11:16.126Z,16.60
2023-05-24T19:13:44.927Z,15.70
2023-05-24T19:16:16.862Z,14.10
2023-05-24T19:18:45.842Z,15.20
2023-05-24T19:21:14.981Z,18.00
2023-05-24T19:23:45.800Z,19.00
2023-05-24T19:26:17.464Z,15.70
2023-05-24T19:28:50.052Z,15.30
2023-05-24T19:31:19.924Z,14.70
2023-05-24T19:34:00.041Z,14.80
2023-05-24T19:36:32.359Z,15.90
2023-05-24T19:39:01.356Z,12.80
2023-05-24T19:41:30.563Z,14.70
2023-05-24T19:44:00.287Z,15.20
2023-05-24T19:46:30.035Z,17.60
2023-05-24T19:48:58.968Z,14.40
2023-05-24T19:51:28.098Z,17.50
2023-05-24T19:53:57.600Z,23.20
2023-05-24T19:56:28.819Z,19.80
2023-05-24T19:59:00.891Z,18.70
2023-05-24T20:01:30.226Z,14.10
2023-05-24T20:03:59.392Z,16.50
2023-05-24T20:06:29.128Z,16.60
2023-05-24T20:08:59.266Z,19.30
2023-05-24T20:11:29.379Z,15.80
2023-05-24T20:13:58.521Z,17.20
2023-05-24T20:16:29.428Z,16.50
2023-05-24T20:18:58.375Z,16.40
2023-05-24T20:21:27.926Z,17.90
2023-05-24T20:23:58.817Z,19.50
2023-05-24T20:26:52.705Z,19.70
2023-05-24T20:29:26.623Z,16.40
2023-05-24T20:31:56.023Z,15.40
2023-05-24T20:34:25.702Z,16.00
2023-05-24T20:36:54.861Z,21.80
2023-05-24T20:39:27.614Z,19.70
2023-05-24T20:41:58.560Z,20.90
2023-05-24T20:44:27.659Z,22.50
2023-05-24T20:47:00.407Z,19.30
2023-05-24T20:49:29.325Z,20.80
2023-05-24T20:52:02.331Z,21.40
2023-05-24T20:54:31.698Z,18.70
2023-05-24T20:57:01.819Z,26.90
2023-05-24T20:59:36.645Z,24.70
2023-05-24T21:02:06.829Z,21.80
2023-05-24T21:04:39.334Z,20.00
2023-05-24T21:07:08.687Z,21.30
2023-05-24T21:09:40.325Z,18.70
2023-05-24T21:12:09.392Z,22.10
2023-05-24T21:14:41.146Z,17.90
2023-05-24T21:17:09.946Z,19.10
2023-05-24T21:19:39.130Z,17.60
2023-05-24T21:22:08.020Z,14.00
2023-05-24T21:24:36.766Z,17.40
2023-05-24T21:27:07.337Z,22.20
2023-05-24T21:29:37.458Z,21.50
2023-05-24T21:32:07.103Z,24.20
2023-05-24T21:34:36.202Z,16.70
2023-05-24T21:37:06.627Z,20.00
2023-05-24T21:39:35.284Z,14.40
2023-05-24T21:42:04.721Z,18.30
2023-05-24T21:44:34.185Z,18.20
2023-05-24T21:47:03.670Z,24.00
2023-05-24T21:49:32.640Z,20.60
2023-05-24T21:52:02.400Z,21.20
2023-05-24T21:54:31.051Z,22.60
2023-05-24T21:57:00.931Z,18.60
2023-05-24T21:59:29.741Z,22.40
2023-05-24T22:01:58.950Z,23.40
2023-05-24T22:04:27.805Z,20.80
2023-05-24T22:06:57.001Z,22.20
2023-05-24T22:09:25.818Z,21.30
2023-05-24T22:11:54.636Z,20.70
2023-05-24T22:14:26.536Z,19.30
2023-05-24T22:16:55.456Z,23.80
2023-05-24T22:19:39.531Z,21.20
2023-05-24T22:22:09.907Z,14.80
2023-05-24T22:24:38.625Z,19.30
2023-05-24T22:27:09.095Z,21.10
2023-05-24T22:29:37.893Z,24.50
2023-05-24T22:32:08.321Z,22.10
2023-05-24T22:34:37.165Z,20.90
2023-05-24T22:37:06.632Z,23.70
2023-05-24T22:39:35.302Z,23.20
2023-05-24T22:42:05.336Z,25.20
2023-05-24T22:44:33.961Z,31.50
2023-05-24T22:47:02.905Z,24.80
2023-05-24T22:49:34.436Z,23.40
2023-05-24T22:52:05.326Z,25.90
2023-05-24T22:54:36.781Z,26.10
2023-05-24T22:57:08.947Z,23.70
2023-05-24T22:59:37.583Z,22.80
2023-05-24T23:02:09.344Z,23.10
2023-05-24T23:04:38.050Z,22.80
2023-05-24T23:07:07.892Z,21.70
2023-05-24T23:09:36.635Z,26.00
2023-05-24T23:12:08.201Z,27.70
2023-05-24T23:14:42.308Z,23.80
2023-05-24T23:17:13.695Z,24.70
2023-05-24T23:19:45.119Z,31.60
2023-05-24T23:22:17.670Z,28.30
2023-05-24T23:24:50.360Z,29.20
2023-05-24T23:27:20.282Z,24.80
2023-05-24T23:29:51.568Z,29.10
2023-05-24T23:32:20.969Z,25.60
2023-05-24T23:34:50.552Z,30.30
2023-05-24T23:37:19.550Z,29.20
2023-05-24T23:39:48.326Z,27.90
2023-05-24T23:42:17.198Z,27.70
2023-05-24T23:44:45.919Z,33.10
2023-05-24T23:47:14.711Z,25.90
2023-05-24T23:49:44.267Z,23.30
2023-05-24T23:52:15.467Z,21.80
2023-05-24T23:54:44.071Z,31.90
2023-05-24T23:57:14.602Z,25.10
2023-05-24T23:59:43.197Z,27.00
